BAW173B EGLL-KJFK
Flight info
| Callsign | BAW173B |
|---|---|
| Flight time | N/A |
| Altitude | 34000 |
| Route | CPT3F CPT DCT DIDZA L9 OKSAW DCT BIBPE DCT BUCGO DCT FELCA DCT OFSOX DCT SLANY DCT MALOT/M083F360 DCT 54N020W 54N030W 54N040W 53N050W DCT RIKAL/N0469F360 N572A TOPPS DCT ENE PARCH4 |
| Aircraft | B77W/H-SDE1E2E3FGHIJ2J3J4J5M1RWXY/LB1D1 |
Departure
| Time | N/A |
|---|---|
| Airport | London Heathrow Airport (EGLL) |
Arrival
| Time | 2026-05-05 15:32 |
|---|---|
| Airport | John F. Kennedy International Airport (KJFK) |
| Time | Latitude | Longitude | Altitude | Speed | Heading |
|---|---|---|---|---|---|
| 2026-05-05 11:19 | 54.06866 | -32.09056 | 36325 ft | 450 kts | 275° |
| 2026-05-05 11:19 | 54.07119 | -32.19720 | 36323 ft | 451 kts | 275° |
| 2026-05-05 11:20 | 54.07364 | -32.30391 | 36314 ft | 451 kts | 274° |
| 2026-05-05 11:20 | 54.07597 | -32.41076 | 36324 ft | 451 kts | 274° |
| 2026-05-05 11:21 | 54.07820 | -32.51696 | 36322 ft | 452 kts | 274° |
| 2026-05-05 11:21 | 54.08036 | -32.62392 | 36311 ft | 452 kts | 274° |
| 2026-05-05 11:22 | 54.08243 | -32.73106 | 36313 ft | 453 kts | 274° |
| 2026-05-05 11:22 | 54.08440 | -32.83824 | 36313 ft | 453 kts | 274° |
| 2026-05-05 11:23 | 54.08628 | -32.94543 | 36295 ft | 453 kts | 273° |
| 2026-05-05 11:23 | 54.08805 | -33.05261 | 36300 ft | 452 kts | 273° |
| 2026-05-05 11:24 | 54.08972 | -33.15894 | 36302 ft | 452 kts | 272° |
| 2026-05-05 11:24 | 54.09131 | -33.26603 | 36302 ft | 452 kts | 272° |
| 2026-05-05 11:25 | 54.09280 | -33.37308 | 36293 ft | 452 kts | 272° |
| 2026-05-05 11:25 | 54.09420 | -33.48010 | 36294 ft | 452 kts | 272° |
| 2026-05-05 11:26 | 54.09518 | -33.55990 | 36284 ft | 452 kts | 271° |
| 2026-05-05 11:26 | 54.09581 | -33.61323 | 36279 ft | 452 kts | 271° |
| 2026-05-05 11:27 | 54.09699 | -33.72040 | 36290 ft | 452 kts | 271° |
| 2026-05-05 11:27 | 54.09808 | -33.82758 | 36288 ft | 453 kts | 271° |
| 2026-05-05 11:28 | 54.09907 | -33.93489 | 36290 ft | 453 kts | 271° |
| 2026-05-05 11:28 | 54.09997 | -34.04157 | 36292 ft | 454 kts | 271° |
| 2026-05-05 11:29 | 54.10077 | -34.14907 | 36285 ft | 454 kts | 271° |
| 2026-05-05 11:29 | 54.10148 | -34.25668 | 36284 ft | 454 kts | 271° |
| 2026-05-05 11:30 | 54.10210 | -34.36434 | 36274 ft | 454 kts | 271° |
| 2026-05-05 11:30 | 54.10261 | -34.47116 | 36274 ft | 454 kts | 270° |
| 2026-05-05 11:31 | 54.10304 | -34.57877 | 36266 ft | 454 kts | 270° |
| 2026-05-05 11:31 | 54.10337 | -34.68633 | 36271 ft | 454 kts | 270° |
| 2026-05-05 11:32 | 54.10360 | -34.79374 | 36257 ft | 454 kts | 270° |
| 2026-05-05 11:32 | 54.10375 | -34.90060 | 36248 ft | 455 kts | 269° |
| 2026-05-05 11:33 | 54.10378 | -35.00877 | 36266 ft | 461 kts | 269° |
| 2026-05-05 11:33 | 54.10371 | -35.11881 | 36254 ft | 466 kts | 269° |
| 2026-05-05 11:34 | 54.10355 | -35.22902 | 36230 ft | 465 kts | 269° |
| 2026-05-05 11:34 | 54.10330 | -35.33818 | 36251 ft | 463 kts | 268° |
| 2026-05-05 11:35 | 54.10294 | -35.44779 | 36230 ft | 462 kts | 268° |
| 2026-05-05 11:35 | 54.10249 | -35.55781 | 36244 ft | 469 kts | 267° |
| 2026-05-05 11:36 | 54.10190 | -35.66983 | 36231 ft | 475 kts | 268° |
| 2026-05-05 11:36 | 54.10123 | -35.78151 | 36212 ft | 474 kts | 267° |
| 2026-05-05 11:37 | 54.10046 | -35.89362 | 36213 ft | 473 kts | 268° |
| 2026-05-05 11:37 | 54.09958 | -36.00561 | 36211 ft | 473 kts | 266° |
| 2026-05-05 11:38 | 54.09860 | -36.11769 | 36228 ft | 473 kts | 267° |
| 2026-05-05 11:38 | 54.09751 | -36.22940 | 36206 ft | 477 kts | 266° |
| 2026-05-05 11:39 | 54.09629 | -36.34271 | 36206 ft | 480 kts | 266° |
| 2026-05-05 11:39 | 54.09497 | -36.45659 | 36194 ft | 482 kts | 266° |
| 2026-05-05 11:40 | 54.09354 | -36.57094 | 36196 ft | 483 kts | 266° |
| 2026-05-05 11:40 | 54.09200 | -36.68545 | 36174 ft | 483 kts | 266° |
| 2026-05-05 11:41 | 54.09035 | -36.79976 | 36198 ft | 483 kts | 265° |
| 2026-05-05 11:41 | 54.08860 | -36.91358 | 36172 ft | 484 kts | 265° |
| 2026-05-05 11:42 | 54.08671 | -37.02840 | 36166 ft | 486 kts | 265° |
| 2026-05-05 11:42 | 54.08472 | -37.14354 | 36164 ft | 487 kts | 265° |
| 2026-05-05 11:43 | 54.08262 | -37.25881 | 36154 ft | 487 kts | 265° |
| 2026-05-05 11:43 | 54.08042 | -37.37334 | 36149 ft | 487 kts | 265° |
| 2026-05-05 11:44 | 54.07810 | -37.48882 | 36145 ft | 488 kts | 264° |
| 2026-05-05 11:44 | 54.07565 | -37.60443 | 36140 ft | 489 kts | 264° |
| 2026-05-05 11:45 | 54.07309 | -37.72013 | 36140 ft | 489 kts | 264° |
| 2026-05-05 11:45 | 54.07042 | -37.83616 | 36130 ft | 490 kts | 264° |
| 2026-05-05 11:46 | 54.06765 | -37.95143 | 36116 ft | 491 kts | 264° |
| 2026-05-05 11:46 | 54.06475 | -38.06756 | 36159 ft | 492 kts | 263° |
| 2026-05-05 11:47 | 54.06172 | -38.18412 | 36113 ft | 493 kts | 263° |
| 2026-05-05 11:47 | 54.05859 | -38.30069 | 36104 ft | 493 kts | 263° |
| 2026-05-05 11:48 | 54.05367 | -38.47559 | 36096 ft | 493 kts | 263° |
| 2026-05-05 11:48 | 54.05027 | -38.59141 | 36095 ft | 493 kts | 263° |
| 2026-05-05 11:49 | 54.04674 | -38.70802 | 36131 ft | 494 kts | 262° |
| 2026-05-05 11:49 | 54.04307 | -38.82502 | 36090 ft | 495 kts | 262° |
| 2026-05-05 11:50 | 54.03929 | -38.94209 | 36088 ft | 497 kts | 262° |
| 2026-05-05 11:50 | 54.03543 | -39.05868 | 36088 ft | 497 kts | 262° |
| 2026-05-05 11:51 | 54.03141 | -39.17608 | 36076 ft | 497 kts | 262° |
| 2026-05-05 11:51 | 54.02728 | -39.29357 | 36073 ft | 498 kts | 262° |
| 2026-05-05 11:52 | 54.02302 | -39.41119 | 36083 ft | 499 kts | 261° |
| 2026-05-05 11:52 | 54.01867 | -39.52823 | 36065 ft | 500 kts | 261° |
| 2026-05-05 11:53 | 54.01418 | -39.64610 | 36068 ft | 499 kts | 261° |
| 2026-05-05 11:53 | 54.00958 | -39.76379 | 36062 ft | 499 kts | 261° |
| 2026-05-05 11:54 | 54.00487 | -39.88149 | 36063 ft | 499 kts | 261° |
| 2026-05-05 11:54 | 54.00005 | -39.99909 | 36094 ft | 499 kts | 260° |
| 2026-05-05 11:55 | 53.99402 | -40.11561 | 36061 ft | 498 kts | 258° |
| 2026-05-05 11:55 | 53.98692 | -40.23244 | 36054 ft | 497 kts | 258° |
| 2026-05-05 11:56 | 53.97976 | -40.34921 | 36053 ft | 497 kts | 258° |
| 2026-05-05 11:56 | 53.97268 | -40.46583 | 36073 ft | 496 kts | 258° |
| 2026-05-05 11:57 | 53.96556 | -40.58255 | 36067 ft | 497 kts | 258° |
| 2026-05-05 11:57 | 53.95838 | -40.69857 | 36054 ft | 498 kts | 258° |
| 2026-05-05 11:58 | 53.95103 | -40.81543 | 36055 ft | 498 kts | 258° |
| 2026-05-05 11:58 | 53.94355 | -40.93236 | 36053 ft | 498 kts | 258° |
| 2026-05-05 11:59 | 53.93596 | -41.04928 | 36041 ft | 499 kts | 258° |
| 2026-05-05 11:59 | 53.92830 | -41.16549 | 36047 ft | 499 kts | 257° |
| 2026-05-05 12:00 | 53.92047 | -41.28237 | 36049 ft | 498 kts | 258° |
| 2026-05-05 12:00 | 53.91256 | -41.39889 | 36044 ft | 496 kts | 258° |
| 2026-05-05 12:01 | 53.90458 | -41.51480 | 36042 ft | 494 kts | 257° |
| 2026-05-05 12:01 | 53.89650 | -41.63033 | 36036 ft | 493 kts | 257° |
| 2026-05-05 12:02 | 53.88837 | -41.74483 | 36036 ft | 492 kts | 257° |
| 2026-05-05 12:02 | 53.88008 | -41.86008 | 36068 ft | 492 kts | 258° |
| 2026-05-05 12:03 | 53.87169 | -41.97526 | 36032 ft | 492 kts | 258° |
| 2026-05-05 12:03 | 53.86321 | -42.09005 | 36024 ft | 491 kts | 257° |
| 2026-05-05 12:04 | 53.86098 | -42.12010 | 36024 ft | 490 kts | 257° |
| 2026-05-05 12:04 | 53.85244 | -42.23376 | 36021 ft | 489 kts | 257° |
| 2026-05-05 12:05 | 53.84375 | -42.34799 | 36021 ft | 489 kts | 257° |
| 2026-05-05 12:05 | 53.83497 | -42.46195 | 36044 ft | 488 kts | 257° |
| 2026-05-05 12:06 | 53.82607 | -42.57592 | 36006 ft | 488 kts | 257° |
| 2026-05-05 12:06 | 53.81709 | -42.68965 | 36006 ft | 487 kts | 257° |
| 2026-05-05 12:07 | 53.80807 | -42.80227 | 36000 ft | 486 kts | 257° |
| 2026-05-05 12:07 | 53.79890 | -42.91558 | 36002 ft | 486 kts | 257° |
| 2026-05-05 12:08 | 53.78963 | -43.02871 | 35994 ft | 486 kts | 257° |
| 2026-05-05 12:08 | 53.78024 | -43.14185 | 36006 ft | 486 kts | 257° |
| 2026-05-05 12:09 | 53.77084 | -43.25401 | 35993 ft | 485 kts | 257° |
| 2026-05-05 12:09 | 53.76127 | -43.36682 | 35980 ft | 485 kts | 257° |
| 2026-05-05 12:10 | 53.75158 | -43.47956 | 35984 ft | 485 kts | 257° |
| 2026-05-05 12:10 | 53.74179 | -43.59235 | 35981 ft | 486 kts | 257° |
| 2026-05-05 12:11 | 53.73188 | -43.70518 | 35994 ft | 486 kts | 257° |
| 2026-05-05 12:11 | 53.72193 | -43.81728 | 35976 ft | 485 kts | 257° |
| 2026-05-05 12:12 | 53.71183 | -43.92983 | 35963 ft | 484 kts | 257° |
| 2026-05-05 12:12 | 53.70166 | -44.04196 | 35964 ft | 483 kts | 257° |
| 2026-05-05 12:13 | 53.69147 | -44.15310 | 35956 ft | 482 kts | 256° |
| 2026-05-05 12:13 | 53.68112 | -44.26472 | 35967 ft | 482 kts | 256° |
| 2026-05-05 12:14 | 53.67065 | -44.37645 | 35951 ft | 483 kts | 256° |
| 2026-05-05 12:14 | 53.66007 | -44.48818 | 35937 ft | 483 kts | 256° |
| 2026-05-05 12:15 | 53.64946 | -44.59913 | 35945 ft | 482 kts | 256° |
| 2026-05-05 12:15 | 53.63869 | -44.71067 | 35933 ft | 482 kts | 256° |
| 2026-05-05 12:16 | 53.62782 | -44.82215 | 35919 ft | 482 kts | 256° |
| 2026-05-05 12:16 | 53.61684 | -44.93356 | 35935 ft | 482 kts | 256° |
| 2026-05-05 12:17 | 53.60576 | -45.04483 | 35926 ft | 481 kts | 256° |
| 2026-05-05 12:17 | 53.59461 | -45.15582 | 35908 ft | 480 kts | 256° |
| 2026-05-05 12:18 | 53.58343 | -45.26598 | 35906 ft | 481 kts | 256° |
| 2026-05-05 12:18 | 53.57207 | -45.37679 | 35911 ft | 481 kts | 256° |
| 2026-05-05 12:19 | 53.56061 | -45.48754 | 35895 ft | 481 kts | 256° |
| 2026-05-05 12:19 | 53.54904 | -45.59839 | 35893 ft | 481 kts | 256° |
| 2026-05-05 12:20 | 53.53737 | -45.70908 | 35878 ft | 481 kts | 256° |
| 2026-05-05 12:20 | 53.52570 | -45.81886 | 35879 ft | 480 kts | 255° |
| 2026-05-05 12:21 | 53.51382 | -45.92944 | 35961 ft | 484 kts | 255° |
| 2026-05-05 12:21 | 53.50776 | -45.98532 | 36136 ft | 488 kts | 255° |
| 2026-05-05 12:21 | 53.50165 | -46.04151 | 36341 ft | 490 kts | 255° |
| 2026-05-05 12:22 | 53.49551 | -46.09781 | 36603 ft | 491 kts | 255° |
| 2026-05-05 12:22 | 53.48931 | -46.15435 | 36787 ft | 493 kts | 255° |
| 2026-05-05 12:22 | 53.47687 | -46.26719 | 36839 ft | 494 kts | 255° |
| 2026-05-05 12:23 | 53.46438 | -46.37967 | 36833 ft | 488 kts | 255° |
| 2026-05-05 12:23 | 53.45183 | -46.49148 | 36848 ft | 487 kts | 255° |
| 2026-05-05 12:24 | 53.43918 | -46.60297 | 36842 ft | 486 kts | 255° |
| 2026-05-05 12:24 | 53.42651 | -46.71364 | 36828 ft | 487 kts | 255° |
| 2026-05-05 12:25 | 53.41364 | -46.82519 | 36819 ft | 488 kts | 255° |
| 2026-05-05 12:25 | 53.40063 | -46.93693 | 36824 ft | 489 kts | 255° |
| 2026-05-05 12:26 | 53.38751 | -47.04874 | 36810 ft | 490 kts | 255° |
| 2026-05-05 12:26 | 53.37424 | -47.16086 | 36801 ft | 491 kts | 255° |
| 2026-05-05 12:27 | 53.36093 | -47.27239 | 36802 ft | 492 kts | 255° |
| 2026-05-05 12:27 | 53.34741 | -47.38465 | 36793 ft | 492 kts | 255° |
| 2026-05-05 12:28 | 53.33380 | -47.49680 | 36783 ft | 491 kts | 255° |
| 2026-05-05 12:28 | 53.32011 | -47.60869 | 36773 ft | 490 kts | 254° |
| 2026-05-05 12:29 | 53.30645 | -47.71936 | 36775 ft | 489 kts | 254° |
| 2026-05-05 12:29 | 53.29262 | -47.83052 | 36758 ft | 488 kts | 254° |
| 2026-05-05 12:30 | 53.27869 | -47.94153 | 36784 ft | 488 kts | 254° |
| 2026-05-05 12:30 | 53.26467 | -48.05240 | 36759 ft | 488 kts | 254° |
| 2026-05-05 12:31 | 53.25055 | -48.16314 | 36744 ft | 488 kts | 254° |
| 2026-05-05 12:31 | 53.23642 | -48.27315 | 36732 ft | 488 kts | 254° |
| 2026-05-05 12:32 | 53.22210 | -48.38371 | 36733 ft | 488 kts | 254° |
| 2026-05-05 12:32 | 53.20767 | -48.49433 | 36734 ft | 488 kts | 254° |
| 2026-05-05 12:33 | 53.19314 | -48.60482 | 36713 ft | 488 kts | 254° |
| 2026-05-05 12:33 | 53.17860 | -48.71449 | 36715 ft | 488 kts | 254° |
| 2026-05-05 12:34 | 53.16387 | -48.82482 | 36715 ft | 487 kts | 254° |
| 2026-05-05 12:34 | 53.14905 | -48.93501 | 36707 ft | 488 kts | 254° |
| 2026-05-05 12:35 | 53.13411 | -49.04520 | 36697 ft | 488 kts | 253° |
| 2026-05-05 12:35 | 53.11907 | -49.15535 | 36702 ft | 488 kts | 253° |
| 2026-05-05 12:36 | 53.10406 | -49.26447 | 36675 ft | 487 kts | 254° |
| 2026-05-05 12:36 | 53.08887 | -49.37402 | 36676 ft | 485 kts | 254° |
| 2026-05-05 12:37 | 53.07361 | -49.48335 | 36668 ft | 485 kts | 253° |
| 2026-05-05 12:37 | 53.05828 | -49.59233 | 36659 ft | 484 kts | 253° |
| 2026-05-05 12:38 | 53.04286 | -49.70120 | 36683 ft | 484 kts | 253° |
| 2026-05-05 12:38 | 53.02744 | -49.80937 | 36655 ft | 484 kts | 253° |
| 2026-05-05 12:39 | 53.01182 | -49.91827 | 36636 ft | 484 kts | 253° |
| 2026-05-05 12:39 | 52.99442 | -50.02606 | 36630 ft | 482 kts | 247° |
| 2026-05-05 12:40 | 52.96979 | -50.12912 | 36624 ft | 480 kts | 245° |
| 2026-05-05 12:40 | 52.94472 | -50.23093 | 36636 ft | 481 kts | 245° |
| 2026-05-05 12:41 | 52.91965 | -50.33343 | 36605 ft | 479 kts | 244° |
| 2026-05-05 12:41 | 52.89477 | -50.43561 | 36608 ft | 477 kts | 245° |
| 2026-05-05 12:42 | 52.86994 | -50.53742 | 36607 ft | 476 kts | 244° |
| 2026-05-05 12:42 | 52.84523 | -50.63816 | 36608 ft | 475 kts | 244° |
| 2026-05-05 12:43 | 52.82026 | -50.73947 | 36616 ft | 476 kts | 245° |
| 2026-05-05 12:43 | 52.79517 | -50.84076 | 36596 ft | 476 kts | 245° |
| 2026-05-05 12:44 | 52.76997 | -50.94204 | 36583 ft | 477 kts | 245° |
| 2026-05-05 12:44 | 52.74486 | -51.04250 | 36584 ft | 477 kts | 245° |
| 2026-05-05 12:45 | 52.71948 | -51.14359 | 36580 ft | 477 kts | 245° |
| 2026-05-05 12:45 | 52.69402 | -51.24455 | 36572 ft | 477 kts | 245° |
| 2026-05-05 12:46 | 52.66848 | -51.34539 | 36565 ft | 476 kts | 245° |
| 2026-05-05 12:46 | 52.64308 | -51.44521 | 36565 ft | 475 kts | 245° |
| 2026-05-05 12:47 | 52.61748 | -51.54539 | 36556 ft | 474 kts | 245° |
| 2026-05-05 12:47 | 52.59181 | -51.64536 | 36547 ft | 474 kts | 245° |
| 2026-05-05 12:48 | 52.57042 | -51.72831 | 36550 ft | 474 kts | 245° |
| 2026-05-05 12:48 | 52.54462 | -51.82799 | 36540 ft | 474 kts | 245° |
| 2026-05-05 12:49 | 52.51454 | -51.94366 | 36578 ft | 474 kts | 245° |
| 2026-05-05 12:49 | 52.50578 | -51.97722 | 36794 ft | 473 kts | 244° |
| 2026-05-05 12:49 | 52.49281 | -52.02683 | 37082 ft | 473 kts | 245° |
| 2026-05-05 12:50 | 52.48000 | -52.07571 | 37374 ft | 472 kts | 244° |
| 2026-05-05 12:50 | 52.46702 | -52.12513 | 37524 ft | 474 kts | 245° |
| 2026-05-05 12:50 | 52.44074 | -52.22485 | 37524 ft | 477 kts | 244° |
| 2026-05-05 12:51 | 52.42258 | -52.29358 | 37524 ft | 475 kts | 244° |
| 2026-05-05 12:51 | 52.40797 | -52.34869 | 37521 ft | 473 kts | 244° |
| 2026-05-05 12:52 | 52.38198 | -52.44642 | 37525 ft | 470 kts | 244° |
| 2026-05-05 12:52 | 52.35583 | -52.54433 | 37530 ft | 469 kts | 244° |
| 2026-05-05 12:53 | 52.32958 | -52.64215 | 37537 ft | 470 kts | 244° |
| 2026-05-05 12:53 | 52.30321 | -52.74000 | 37528 ft | 471 kts | 244° |
| 2026-05-05 12:54 | 52.26361 | -52.88619 | 37525 ft | 472 kts | 244° |
| 2026-05-05 12:55 | 52.23695 | -52.98408 | 37520 ft | 472 kts | 244° |
| 2026-05-05 12:55 | 52.21022 | -53.08181 | 37521 ft | 472 kts | 244° |
| 2026-05-05 12:56 | 52.18345 | -53.17930 | 37519 ft | 470 kts | 244° |
| 2026-05-05 12:56 | 52.15687 | -53.27570 | 37513 ft | 469 kts | 244° |
| 2026-05-05 12:57 | 52.13010 | -53.37239 | 37501 ft | 468 kts | 244° |
| 2026-05-05 12:57 | 52.10332 | -53.46870 | 37502 ft | 467 kts | 244° |
| 2026-05-05 12:58 | 52.07645 | -53.56494 | 37503 ft | 468 kts | 244° |
| 2026-05-05 12:58 | 52.04965 | -53.66050 | 37503 ft | 469 kts | 244° |
| 2026-05-05 12:59 | 52.02255 | -53.75680 | 37507 ft | 469 kts | 244° |
| 2026-05-05 12:59 | 51.99533 | -53.85308 | 37496 ft | 470 kts | 244° |
| 2026-05-05 13:00 | 51.95430 | -53.99747 | 37502 ft | 470 kts | 244° |
| 2026-05-05 13:01 | 51.89945 | -54.18919 | 37508 ft | 472 kts | 244° |
| 2026-05-05 13:01 | 51.87172 | -54.28554 | 37499 ft | 473 kts | 244° |
| 2026-05-05 13:02 | 51.84387 | -54.38192 | 37505 ft | 473 kts | 244° |
| 2026-05-05 13:02 | 51.81616 | -54.47747 | 37501 ft | 472 kts | 244° |
| 2026-05-05 13:03 | 51.78617 | -54.57171 | 37509 ft | 471 kts | 238° |
| 2026-05-05 13:03 | 51.75184 | -54.66171 | 37510 ft | 471 kts | 238° |
| 2026-05-05 13:04 | 51.71731 | -54.75155 | 37507 ft | 471 kts | 238° |
| 2026-05-05 13:04 | 51.68287 | -54.84148 | 37512 ft | 471 kts | 238° |
| 2026-05-05 13:05 | 51.64868 | -54.93084 | 37509 ft | 471 kts | 238° |
| 2026-05-05 13:05 | 51.61425 | -55.02065 | 37511 ft | 471 kts | 238° |
| 2026-05-05 13:06 | 51.57978 | -55.11023 | 37512 ft | 471 kts | 238° |
| 2026-05-05 13:06 | 51.54528 | -55.19954 | 37507 ft | 470 kts | 238° |
| 2026-05-05 13:07 | 51.51091 | -55.28820 | 37490 ft | 470 kts | 238° |
| 2026-05-05 13:07 | 51.47631 | -55.37713 | 37486 ft | 469 kts | 238° |
| 2026-05-05 13:08 | 51.44173 | -55.46573 | 37489 ft | 468 kts | 238° |
| 2026-05-05 13:08 | 51.40716 | -55.55399 | 37489 ft | 467 kts | 238° |
| 2026-05-05 13:09 | 51.37250 | -55.64218 | 37479 ft | 468 kts | 238° |
| 2026-05-05 13:09 | 51.33803 | -55.72959 | 37457 ft | 467 kts | 238° |
| 2026-05-05 13:10 | 51.30335 | -55.81721 | 37474 ft | 466 kts | 238° |
| 2026-05-05 13:10 | 51.26869 | -55.90451 | 37476 ft | 465 kts | 238° |
| 2026-05-05 13:11 | 51.23400 | -55.99158 | 37482 ft | 465 kts | 238° |
| 2026-05-05 13:11 | 51.19948 | -56.07795 | 37465 ft | 465 kts | 237° |
| 2026-05-05 13:12 | 51.16450 | -56.16514 | 37487 ft | 470 kts | 237° |
| 2026-05-05 13:12 | 51.12902 | -56.25330 | 37481 ft | 475 kts | 237° |
| 2026-05-05 13:13 | 51.09335 | -56.34162 | 37471 ft | 472 kts | 237° |
| 2026-05-05 13:13 | 51.05806 | -56.42873 | 37472 ft | 466 kts | 237° |
| 2026-05-05 13:14 | 51.02326 | -56.51432 | 37494 ft | 463 kts | 238° |
| 2026-05-05 13:14 | 50.98815 | -56.60040 | 37494 ft | 466 kts | 237° |
| 2026-05-05 13:15 | 50.95285 | -56.68668 | 37498 ft | 467 kts | 237° |
| 2026-05-05 13:15 | 50.91735 | -56.77314 | 37491 ft | 470 kts | 238° |
| 2026-05-05 13:16 | 50.88194 | -56.85912 | 37503 ft | 466 kts | 238° |
| 2026-05-05 13:16 | 50.84684 | -56.94398 | 37498 ft | 457 kts | 238° |
| 2026-05-05 13:17 | 50.81212 | -57.02771 | 37521 ft | 457 kts | 238° |
| 2026-05-05 13:17 | 50.77714 | -57.11184 | 37531 ft | 460 kts | 238° |
| 2026-05-05 13:18 | 50.74222 | -57.19550 | 37526 ft | 460 kts | 238° |
| 2026-05-05 13:18 | 50.70691 | -57.27984 | 37555 ft | 461 kts | 238° |
| 2026-05-05 13:19 | 50.67147 | -57.36423 | 37561 ft | 462 kts | 238° |
| 2026-05-05 13:19 | 50.63587 | -57.44870 | 37577 ft | 463 kts | 237° |
| 2026-05-05 13:20 | 50.60016 | -57.53317 | 37577 ft | 464 kts | 237° |
| 2026-05-05 13:20 | 50.56464 | -57.61690 | 37587 ft | 462 kts | 237° |
| 2026-05-05 13:21 | 50.52898 | -57.70070 | 37605 ft | 460 kts | 237° |
| 2026-05-05 13:21 | 50.49331 | -57.78427 | 37610 ft | 460 kts | 237° |
| 2026-05-05 13:22 | 50.45780 | -57.86719 | 37631 ft | 461 kts | 237° |
| 2026-05-05 13:22 | 50.42191 | -57.95077 | 37625 ft | 463 kts | 237° |
| 2026-05-05 13:23 | 50.38583 | -58.03449 | 37646 ft | 464 kts | 237° |
| 2026-05-05 13:23 | 50.34961 | -58.11828 | 37647 ft | 465 kts | 237° |
| 2026-05-05 13:24 | 50.31332 | -58.20195 | 37645 ft | 465 kts | 237° |
| 2026-05-05 13:24 | 50.27721 | -58.28493 | 37644 ft | 464 kts | 237° |
| 2026-05-05 13:25 | 50.24087 | -58.36821 | 37655 ft | 464 kts | 237° |
| 2026-05-05 13:25 | 50.20447 | -58.45134 | 37664 ft | 464 kts | 237° |
| 2026-05-05 13:26 | 50.18489 | -58.49595 | 37666 ft | 464 kts | 237° |
| 2026-05-05 13:26 | 50.15906 | -58.55470 | 37688 ft | 463 kts | 237° |
| 2026-05-05 13:27 | 50.12252 | -58.63757 | 37665 ft | 464 kts | 237° |
| 2026-05-05 13:27 | 50.08590 | -58.72036 | 37691 ft | 464 kts | 237° |
| 2026-05-05 13:28 | 50.04922 | -58.80303 | 37684 ft | 464 kts | 237° |
| 2026-05-05 13:28 | 50.01267 | -58.88516 | 37691 ft | 465 kts | 237° |
| 2026-05-05 13:29 | 49.97580 | -58.96772 | 37687 ft | 465 kts | 237° |
| 2026-05-05 13:29 | 49.93887 | -59.05018 | 37706 ft | 465 kts | 237° |
| 2026-05-05 13:30 | 49.90185 | -59.13258 | 37706 ft | 465 kts | 237° |
| 2026-05-05 13:30 | 49.86481 | -59.21478 | 37705 ft | 465 kts | 237° |
| 2026-05-05 13:31 | 49.82796 | -59.29629 | 37707 ft | 465 kts | 237° |
| 2026-05-05 13:31 | 49.79079 | -59.37826 | 37708 ft | 465 kts | 237° |
| 2026-05-05 13:32 | 49.75358 | -59.46008 | 37724 ft | 465 kts | 237° |
| 2026-05-05 13:32 | 49.71659 | -59.54115 | 37718 ft | 465 kts | 237° |
| 2026-05-05 13:33 | 49.67931 | -59.62260 | 37720 ft | 464 kts | 237° |
| 2026-05-05 13:33 | 49.64198 | -59.70392 | 37707 ft | 464 kts | 237° |
| 2026-05-05 13:34 | 49.60463 | -59.78502 | 37724 ft | 463 kts | 237° |
| 2026-05-05 13:34 | 49.56755 | -59.86530 | 37730 ft | 463 kts | 237° |
| 2026-05-05 13:35 | 49.53020 | -59.94592 | 37727 ft | 462 kts | 237° |
| 2026-05-05 13:35 | 49.49283 | -60.02635 | 37737 ft | 462 kts | 237° |
| 2026-05-05 13:36 | 49.45542 | -60.10663 | 37744 ft | 461 kts | 237° |
| 2026-05-05 13:36 | 49.41830 | -60.18603 | 37736 ft | 460 kts | 237° |
| 2026-05-05 13:37 | 49.38096 | -60.26566 | 37748 ft | 459 kts | 237° |
| 2026-05-05 13:37 | 49.34366 | -60.34498 | 37749 ft | 458 kts | 237° |
| 2026-05-05 13:38 | 49.30637 | -60.42403 | 37750 ft | 457 kts | 237° |
| 2026-05-05 13:38 | 49.26911 | -60.50280 | 37758 ft | 456 kts | 237° |
| 2026-05-05 13:39 | 49.23207 | -60.58089 | 37759 ft | 456 kts | 237° |
| 2026-05-05 13:39 | 49.19473 | -60.65937 | 37767 ft | 456 kts | 237° |
| 2026-05-05 13:40 | 49.15732 | -60.73775 | 37761 ft | 456 kts | 237° |
| 2026-05-05 13:40 | 49.11985 | -60.81603 | 37782 ft | 457 kts | 237° |
| 2026-05-05 13:41 | 49.08229 | -60.89428 | 37778 ft | 457 kts | 237° |
| 2026-05-05 13:41 | 49.04488 | -60.97200 | 37781 ft | 458 kts | 237° |
| 2026-05-05 13:42 | 49.00714 | -61.05016 | 37775 ft | 458 kts | 237° |
| 2026-05-05 13:42 | 48.96935 | -61.12818 | 37791 ft | 458 kts | 237° |
| 2026-05-05 13:43 | 48.93152 | -61.20609 | 37799 ft | 458 kts | 237° |
| 2026-05-05 13:43 | 48.89388 | -61.28337 | 37792 ft | 458 kts | 237° |
| 2026-05-05 13:44 | 48.85592 | -61.36107 | 37773 ft | 458 kts | 237° |
| 2026-05-05 13:44 | 48.81794 | -61.43861 | 37797 ft | 458 kts | 237° |
| 2026-05-05 13:45 | 48.77986 | -61.51612 | 37800 ft | 458 kts | 237° |
| 2026-05-05 13:45 | 48.74173 | -61.59350 | 37805 ft | 459 kts | 237° |
| 2026-05-05 13:46 | 48.70376 | -61.67035 | 37806 ft | 459 kts | 237° |
| 2026-05-05 13:46 | 48.66547 | -61.74763 | 37801 ft | 459 kts | 236° |
| 2026-05-05 13:47 | 48.62711 | -61.82481 | 37809 ft | 459 kts | 236° |
| 2026-05-05 13:47 | 48.58868 | -61.90192 | 37808 ft | 459 kts | 236° |
| 2026-05-05 13:48 | 48.55042 | -61.97847 | 37813 ft | 460 kts | 236° |
| 2026-05-05 13:48 | 48.51188 | -62.05534 | 37812 ft | 459 kts | 236° |
| 2026-05-05 13:49 | 48.47331 | -62.13208 | 37814 ft | 459 kts | 236° |
| 2026-05-05 13:49 | 48.43469 | -62.20869 | 37822 ft | 459 kts | 236° |
| 2026-05-05 13:50 | 48.39626 | -62.28471 | 37805 ft | 459 kts | 236° |
| 2026-05-05 13:50 | 48.35758 | -62.36102 | 37812 ft | 458 kts | 237° |
| 2026-05-05 13:51 | 48.31893 | -62.43704 | 37818 ft | 458 kts | 237° |
| 2026-05-05 13:51 | 48.28024 | -62.51294 | 37823 ft | 457 kts | 236° |
| 2026-05-05 13:52 | 48.24182 | -62.58808 | 37821 ft | 457 kts | 236° |
| 2026-05-05 13:52 | 48.20313 | -62.66356 | 37806 ft | 456 kts | 236° |
| 2026-05-05 13:53 | 48.16449 | -62.73871 | 37821 ft | 455 kts | 236° |
| 2026-05-05 13:53 | 48.12585 | -62.81366 | 37824 ft | 454 kts | 236° |
| 2026-05-05 13:54 | 48.08723 | -62.88837 | 37825 ft | 454 kts | 236° |
| 2026-05-05 13:54 | 48.04881 | -62.96251 | 37810 ft | 454 kts | 236° |
| 2026-05-05 13:55 | 48.01013 | -63.03691 | 37822 ft | 453 kts | 236° |
| 2026-05-05 13:55 | 47.97139 | -63.11124 | 37826 ft | 453 kts | 236° |
| 2026-05-05 13:56 | 47.93263 | -63.18541 | 37821 ft | 453 kts | 236° |
| 2026-05-05 13:56 | 47.89405 | -63.25903 | 37823 ft | 454 kts | 236° |
| 2026-05-05 13:57 | 47.85515 | -63.33306 | 37825 ft | 454 kts | 236° |
| 2026-05-05 13:57 | 47.81617 | -63.40704 | 37832 ft | 454 kts | 236° |
| 2026-05-05 13:58 | 47.77713 | -63.48092 | 37823 ft | 454 kts | 236° |
| 2026-05-05 13:58 | 47.73831 | -63.55420 | 37811 ft | 454 kts | 236° |
| 2026-05-05 13:59 | 47.67967 | -63.66451 | 37822 ft | 453 kts | 236° |
| 2026-05-05 14:00 | 47.62759 | -63.76209 | 37827 ft | 453 kts | 236° |
| 2026-05-05 14:00 | 47.58189 | -63.84745 | 37802 ft | 452 kts | 236° |
| 2026-05-05 14:01 | 47.54309 | -63.91971 | 37825 ft | 451 kts | 236° |
| 2026-05-05 14:01 | 47.50408 | -63.99218 | 37827 ft | 450 kts | 236° |
| 2026-05-05 14:02 | 47.46506 | -64.06448 | 37824 ft | 449 kts | 236° |
| 2026-05-05 14:02 | 47.42608 | -64.13651 | 37794 ft | 449 kts | 236° |
| 2026-05-05 14:03 | 47.38708 | -64.20835 | 37815 ft | 448 kts | 236° |
| 2026-05-05 14:03 | 47.34841 | -64.27943 | 37814 ft | 447 kts | 236° |
| 2026-05-05 14:04 | 47.30949 | -64.35077 | 37819 ft | 446 kts | 236° |
| 2026-05-05 14:04 | 47.27058 | -64.42192 | 37821 ft | 446 kts | 235° |
| 2026-05-05 14:05 | 47.23165 | -64.49291 | 37814 ft | 446 kts | 235° |
| 2026-05-05 14:05 | 47.19267 | -64.56382 | 37824 ft | 446 kts | 235° |
| 2026-05-05 14:06 | 47.15384 | -64.63427 | 37822 ft | 447 kts | 235° |
| 2026-05-05 14:06 | 47.11460 | -64.70528 | 37812 ft | 448 kts | 235° |
| 2026-05-05 14:07 | 47.07528 | -64.77625 | 37808 ft | 448 kts | 235° |
| 2026-05-05 14:07 | 47.03586 | -64.84721 | 37815 ft | 450 kts | 235° |
| 2026-05-05 14:08 | 46.99654 | -64.91781 | 37813 ft | 451 kts | 234° |
| 2026-05-05 14:08 | 46.95684 | -64.98890 | 37815 ft | 451 kts | 234° |
| 2026-05-05 14:09 | 46.91706 | -65.05997 | 37807 ft | 451 kts | 234° |
| 2026-05-05 14:09 | 46.87722 | -65.13093 | 37814 ft | 452 kts | 234° |
| 2026-05-05 14:10 | 46.83757 | -65.20139 | 37819 ft | 452 kts | 234° |
| 2026-05-05 14:10 | 46.79763 | -65.27219 | 37826 ft | 451 kts | 234° |
| 2026-05-05 14:11 | 46.75772 | -65.34273 | 37817 ft | 450 kts | 234° |
| 2026-05-05 14:11 | 46.71788 | -65.41298 | 37818 ft | 449 kts | 234° |
| 2026-05-05 14:12 | 46.67809 | -65.48298 | 37818 ft | 448 kts | 234° |
| 2026-05-05 14:12 | 46.63863 | -65.55222 | 37819 ft | 447 kts | 234° |
| 2026-05-05 14:13 | 46.59891 | -65.62170 | 37819 ft | 446 kts | 234° |
| 2026-05-05 14:13 | 46.55919 | -65.69105 | 37825 ft | 446 kts | 234° |
| 2026-05-05 14:14 | 46.51944 | -65.76027 | 37828 ft | 446 kts | 234° |
| 2026-05-05 14:14 | 46.47994 | -65.82889 | 37828 ft | 446 kts | 234° |
| 2026-05-05 14:15 | 46.44013 | -65.89786 | 37824 ft | 446 kts | 234° |
| 2026-05-05 14:15 | 46.40027 | -65.96675 | 37827 ft | 446 kts | 234° |
| 2026-05-05 14:16 | 46.36033 | -66.03561 | 37831 ft | 447 kts | 234° |
| 2026-05-05 14:16 | 46.35026 | -66.05294 | 37830 ft | 447 kts | 234° |
| 2026-05-05 14:17 | 46.31062 | -66.12106 | 37833 ft | 447 kts | 234° |
| 2026-05-05 14:17 | 46.27052 | -66.18981 | 37832 ft | 447 kts | 233° |
| 2026-05-05 14:18 | 46.23032 | -66.25855 | 37832 ft | 448 kts | 233° |
| 2026-05-05 14:18 | 46.19011 | -66.32715 | 37834 ft | 447 kts | 233° |
| 2026-05-05 14:19 | 46.15012 | -66.39519 | 37815 ft | 447 kts | 233° |
| 2026-05-05 14:19 | 46.10989 | -66.46348 | 37826 ft | 447 kts | 233° |
| 2026-05-05 14:20 | 46.06960 | -66.53169 | 37826 ft | 447 kts | 233° |
| 2026-05-05 14:20 | 46.02932 | -66.59973 | 37833 ft | 447 kts | 233° |
| 2026-05-05 14:21 | 45.98923 | -66.66727 | 37814 ft | 447 kts | 233° |
| 2026-05-05 14:21 | 45.94886 | -66.73512 | 37828 ft | 447 kts | 233° |
| 2026-05-05 14:22 | 45.90845 | -66.80289 | 37835 ft | 447 kts | 233° |
| 2026-05-05 14:22 | 45.86799 | -66.87056 | 37835 ft | 447 kts | 233° |
| 2026-05-05 14:23 | 45.82744 | -66.93823 | 37815 ft | 447 kts | 233° |
| 2026-05-05 14:23 | 45.78714 | -67.00529 | 37826 ft | 447 kts | 233° |
| 2026-05-05 14:24 | 45.74655 | -67.07269 | 37837 ft | 447 kts | 233° |
| 2026-05-05 14:24 | 45.70598 | -67.13988 | 37839 ft | 446 kts | 232° |
| 2026-05-05 14:25 | 45.66546 | -67.20685 | 37834 ft | 445 kts | 232° |
| 2026-05-05 14:25 | 45.62524 | -67.27314 | 37833 ft | 444 kts | 232° |
| 2026-05-05 14:26 | 45.58478 | -67.33970 | 37846 ft | 444 kts | 232° |
| 2026-05-05 14:26 | 45.54429 | -67.40613 | 37848 ft | 443 kts | 232° |
| 2026-05-05 14:27 | 45.50384 | -67.47234 | 37834 ft | 443 kts | 232° |
| 2026-05-05 14:27 | 45.46366 | -67.53795 | 37836 ft | 442 kts | 232° |
| 2026-05-05 14:28 | 45.42315 | -67.60395 | 37839 ft | 442 kts | 232° |
| 2026-05-05 14:28 | 45.38264 | -67.66983 | 37845 ft | 442 kts | 232° |
| 2026-05-05 14:29 | 45.34204 | -67.73566 | 37844 ft | 442 kts | 232° |
| 2026-05-05 14:29 | 45.30107 | -67.80093 | 37847 ft | 443 kts | 231° |
| 2026-05-05 14:30 | 45.25998 | -67.86545 | 37857 ft | 444 kts | 231° |
| 2026-05-05 14:30 | 45.23783 | -67.90019 | 37858 ft | 444 kts | 231° |
| 2026-05-05 14:31 | 45.20862 | -67.94600 | 37824 ft | 443 kts | 231° |
| 2026-05-05 14:31 | 45.16735 | -68.01068 | 37842 ft | 442 kts | 231° |
| 2026-05-05 14:32 | 45.12647 | -68.07467 | 37856 ft | 440 kts | 231° |
| 2026-05-05 14:32 | 45.08544 | -68.13874 | 37857 ft | 439 kts | 231° |
| 2026-05-05 14:33 | 45.04442 | -68.20266 | 37851 ft | 438 kts | 231° |
| 2026-05-05 14:33 | 45.00343 | -68.26638 | 37859 ft | 438 kts | 231° |
| 2026-05-05 14:34 | 44.96247 | -68.32991 | 37856 ft | 437 kts | 231° |
| 2026-05-05 14:34 | 44.92176 | -68.39290 | 37861 ft | 437 kts | 231° |
| 2026-05-05 14:35 | 44.88073 | -68.45626 | 37841 ft | 438 kts | 231° |
| 2026-05-05 14:35 | 44.83962 | -68.51959 | 37849 ft | 438 kts | 231° |
| 2026-05-05 14:36 | 44.79841 | -68.58290 | 37839 ft | 439 kts | 231° |
| 2026-05-05 14:36 | 44.75740 | -68.64579 | 37836 ft | 439 kts | 231° |
| 2026-05-05 14:37 | 44.71606 | -68.70903 | 37837 ft | 440 kts | 231° |
| 2026-05-05 14:37 | 44.67464 | -68.77225 | 37844 ft | 439 kts | 231° |
| 2026-05-05 14:38 | 44.63332 | -68.83517 | 37841 ft | 438 kts | 231° |
| 2026-05-05 14:38 | 44.59201 | -68.89793 | 37836 ft | 437 kts | 231° |
| 2026-05-05 14:39 | 44.55109 | -68.95998 | 37837 ft | 436 kts | 230° |
| 2026-05-05 14:39 | 44.50988 | -69.02232 | 37847 ft | 436 kts | 230° |
| 2026-05-05 14:40 | 44.46866 | -69.08453 | 37854 ft | 436 kts | 230° |
| 2026-05-05 14:40 | 44.42733 | -69.14678 | 37837 ft | 437 kts | 230° |
| 2026-05-05 14:41 | 44.38620 | -69.20859 | 37844 ft | 438 kts | 230° |
| 2026-05-05 14:41 | 44.34461 | -69.27095 | 37852 ft | 439 kts | 230° |
| 2026-05-05 14:42 | 44.30293 | -69.33331 | 37855 ft | 440 kts | 230° |
| 2026-05-05 14:42 | 44.26106 | -69.39579 | 37860 ft | 441 kts | 230° |
| 2026-05-05 14:43 | 44.21911 | -69.45827 | 37869 ft | 442 kts | 230° |
| 2026-05-05 14:43 | 44.17730 | -69.52038 | 37884 ft | 442 kts | 230° |
| 2026-05-05 14:44 | 44.13522 | -69.58277 | 37889 ft | 442 kts | 230° |
| 2026-05-05 14:44 | 44.09310 | -69.64508 | 37884 ft | 442 kts | 230° |
| 2026-05-05 14:45 | 44.05101 | -69.70720 | 37899 ft | 441 kts | 230° |
| 2026-05-05 14:45 | 44.00897 | -69.76913 | 37895 ft | 441 kts | 230° |
| 2026-05-05 14:46 | 43.96715 | -69.83057 | 37899 ft | 440 kts | 230° |
| 2026-05-05 14:46 | 43.92507 | -69.89229 | 37878 ft | 440 kts | 229° |
| 2026-05-05 14:47 | 43.88295 | -69.95390 | 37881 ft | 440 kts | 229° |
| 2026-05-05 14:47 | 43.84102 | -70.01512 | 37881 ft | 441 kts | 229° |
| 2026-05-05 14:48 | 43.79880 | -70.07662 | 37874 ft | 441 kts | 229° |
| 2026-05-05 14:48 | 43.75644 | -70.13820 | 37864 ft | 442 kts | 229° |
| 2026-05-05 14:49 | 43.71404 | -70.19969 | 37862 ft | 442 kts | 229° |
| 2026-05-05 14:49 | 43.67156 | -70.26117 | 37861 ft | 442 kts | 229° |
| 2026-05-05 14:50 | 43.62929 | -70.32221 | 37874 ft | 443 kts | 229° |
| 2026-05-05 14:50 | 43.58676 | -70.38350 | 37859 ft | 442 kts | 229° |
| 2026-05-05 14:51 | 43.54420 | -70.44469 | 37859 ft | 441 kts | 229° |
| 2026-05-05 14:51 | 43.50173 | -70.50566 | 37862 ft | 441 kts | 229° |
| 2026-05-05 14:52 | 43.45920 | -70.56637 | 37864 ft | 441 kts | 227° |
| 2026-05-05 14:52 | 43.41003 | -70.61659 | 37871 ft | 447 kts | 213° |
| 2026-05-05 14:53 | 43.35287 | -70.65153 | 37857 ft | 453 kts | 204° |
| 2026-05-05 14:53 | 43.29332 | -70.67998 | 37858 ft | 454 kts | 203° |
| 2026-05-05 14:54 | 43.23367 | -70.70850 | 37870 ft | 454 kts | 203° |
| 2026-05-05 14:54 | 43.17437 | -70.73733 | 37859 ft | 455 kts | 203° |
| 2026-05-05 14:55 | 43.11467 | -70.76650 | 37860 ft | 456 kts | 203° |
| 2026-05-05 14:55 | 43.05485 | -70.79567 | 37861 ft | 456 kts | 203° |
| 2026-05-05 14:56 | 42.99504 | -70.82476 | 37865 ft | 456 kts | 203° |
| 2026-05-05 14:56 | 42.93554 | -70.85363 | 37851 ft | 457 kts | 203° |
| 2026-05-05 14:57 | 42.87567 | -70.88263 | 37908 ft | 457 kts | 203° |
| 2026-05-05 14:57 | 42.81577 | -70.91159 | 37903 ft | 457 kts | 203° |
| 2026-05-05 14:58 | 42.75588 | -70.94050 | 37895 ft | 457 kts | 202° |
| 2026-05-05 14:58 | 42.69596 | -70.96936 | 37918 ft | 457 kts | 202° |
| 2026-05-05 14:59 | 42.63645 | -70.99798 | 37906 ft | 457 kts | 202° |
| 2026-05-05 14:59 | 42.57646 | -71.02678 | 37905 ft | 457 kts | 202° |
| 2026-05-05 15:00 | 42.52651 | -71.05070 | 37905 ft | 458 kts | 202° |
| 2026-05-05 15:00 | 42.45626 | -71.08430 | 37902 ft | 458 kts | 202° |
| 2026-05-05 15:01 | 42.39659 | -71.11277 | 37899 ft | 458 kts | 202° |
| 2026-05-05 15:01 | 42.33650 | -71.14139 | 37905 ft | 458 kts | 202° |
| 2026-05-05 15:02 | 42.27630 | -71.17000 | 37915 ft | 459 kts | 202° |
| 2026-05-05 15:02 | 42.21601 | -71.19858 | 37920 ft | 459 kts | 202° |
| 2026-05-05 15:03 | 42.15566 | -71.22714 | 37931 ft | 460 kts | 202° |
| 2026-05-05 15:03 | 42.09559 | -71.25552 | 37924 ft | 461 kts | 202° |
| 2026-05-05 15:04 | 42.03503 | -71.28407 | 37938 ft | 461 kts | 202° |
| 2026-05-05 15:04 | 41.97441 | -71.31258 | 37934 ft | 461 kts | 201° |
| 2026-05-05 15:05 | 41.88354 | -71.35522 | 37905 ft | 461 kts | 201° |
| 2026-05-05 15:06 | 41.82310 | -71.38353 | 37945 ft | 460 kts | 201° |
| 2026-05-05 15:06 | 41.79318 | -71.39751 | 37645 ft | 463 kts | 201° |
| 2026-05-05 15:06 | 41.76293 | -71.41212 | 37125 ft | 460 kts | 205° |
| 2026-05-05 15:06 | 41.73424 | -71.43038 | 36643 ft | 453 kts | 211° |
| 2026-05-05 15:07 | 41.70729 | -71.45181 | 36165 ft | 449 kts | 214° |
| 2026-05-05 15:07 | 41.68187 | -71.47595 | 35651 ft | 447 kts | 220° |
| 2026-05-05 15:07 | 41.65796 | -71.50253 | 35166 ft | 447 kts | 221° |
| 2026-05-05 15:07 | 41.63411 | -71.52948 | 34659 ft | 451 kts | 221° |
| 2026-05-05 15:08 | 41.61008 | -71.55669 | 34172 ft | 456 kts | 221° |
| 2026-05-05 15:08 | 41.58606 | -71.58374 | 33656 ft | 458 kts | 221° |
| 2026-05-05 15:08 | 41.56163 | -71.61111 | 33103 ft | 458 kts | 221° |
| 2026-05-05 15:08 | 41.53719 | -71.63835 | 32547 ft | 457 kts | 220° |
| 2026-05-05 15:09 | 41.51278 | -71.66549 | 32017 ft | 456 kts | 220° |
| 2026-05-05 15:09 | 41.46410 | -71.71946 | 31658 ft | 461 kts | 220° |
| 2026-05-05 15:09 | 41.43932 | -71.74689 | 31102 ft | 464 kts | 219° |
| 2026-05-05 15:10 | 41.41452 | -71.77433 | 30590 ft | 462 kts | 219° |
| 2026-05-05 15:10 | 41.39020 | -71.80121 | 30056 ft | 458 kts | 219° |
| 2026-05-05 15:10 | 41.36578 | -71.82818 | 29450 ft | 455 kts | 219° |
| 2026-05-05 15:10 | 41.34150 | -71.85496 | 28842 ft | 451 kts | 219° |
| 2026-05-05 15:11 | 41.31742 | -71.88151 | 28246 ft | 448 kts | 219° |
| 2026-05-05 15:11 | 41.29351 | -71.90782 | 27657 ft | 444 kts | 219° |
| 2026-05-05 15:11 | 41.26987 | -71.93382 | 27070 ft | 439 kts | 219° |
| 2026-05-05 15:11 | 41.24645 | -71.95978 | 26523 ft | 439 kts | 221° |
| 2026-05-05 15:12 | 41.22518 | -71.98884 | 25949 ft | 440 kts | 230° |
| 2026-05-05 15:12 | 41.20738 | -72.02115 | 25426 ft | 438 kts | 236° |
| 2026-05-05 15:12 | 41.19182 | -72.05577 | 24929 ft | 435 kts | 242° |
| 2026-05-05 15:12 | 41.17901 | -72.09199 | 24456 ft | 432 kts | 244° |
| 2026-05-05 15:13 | 41.16658 | -72.12822 | 23923 ft | 430 kts | 244° |
| 2026-05-05 15:13 | 41.15418 | -72.16415 | 23367 ft | 428 kts | 244° |
| 2026-05-05 15:13 | 41.14177 | -72.19992 | 22759 ft | 425 kts | 244° |
| 2026-05-05 15:13 | 41.12941 | -72.23534 | 22154 ft | 421 kts | 244° |
| 2026-05-05 15:14 | 41.11716 | -72.27028 | 21554 ft | 415 kts | 245° |
| 2026-05-05 15:14 | 41.10504 | -72.30476 | 20964 ft | 409 kts | 245° |
| 2026-05-05 15:14 | 41.09311 | -72.33864 | 20390 ft | 403 kts | 245° |
| 2026-05-05 15:14 | 41.08150 | -72.37156 | 19833 ft | 397 kts | 245° |
| 2026-05-05 15:15 | 41.06990 | -72.40440 | 19318 ft | 390 kts | 245° |
| 2026-05-05 15:15 | 41.05848 | -72.43671 | 18823 ft | 384 kts | 245° |
| 2026-05-05 15:15 | 41.04720 | -72.46856 | 18306 ft | 379 kts | 245° |
| 2026-05-05 15:15 | 41.03606 | -72.49998 | 17758 ft | 374 kts | 245° |
| 2026-05-05 15:16 | 41.02505 | -72.53104 | 17238 ft | 372 kts | 246° |
| 2026-05-05 15:16 | 41.01407 | -72.56200 | 16729 ft | 371 kts | 246° |
| 2026-05-05 15:16 | 41.00311 | -72.59285 | 16222 ft | 370 kts | 246° |
| 2026-05-05 15:16 | 40.99220 | -72.62351 | 15760 ft | 367 kts | 246° |
| 2026-05-05 15:17 | 40.98152 | -72.65353 | 15300 ft | 363 kts | 246° |
| 2026-05-05 15:17 | 40.97079 | -72.68365 | 14828 ft | 360 kts | 246° |
| 2026-05-05 15:17 | 40.96014 | -72.71350 | 14380 ft | 357 kts | 246° |
| 2026-05-05 15:17 | 40.94956 | -72.74308 | 13927 ft | 354 kts | 245° |
| 2026-05-05 15:18 | 40.93842 | -72.77175 | 13410 ft | 345 kts | 242° |
| 2026-05-05 15:18 | 40.92860 | -72.80010 | 12898 ft | 337 kts | 251° |
| 2026-05-05 15:18 | 40.92371 | -72.81944 | 12582 ft | 333 kts | 251° |
| 2026-05-05 15:18 | 40.91632 | -72.84821 | 12124 ft | 328 kts | 250° |
| 2026-05-05 15:19 | 40.90638 | -72.88582 | 11531 ft | 320 kts | 250° |
| 2026-05-05 15:19 | 40.89910 | -72.91288 | 11143 ft | 314 kts | 249° |
| 2026-05-05 15:19 | 40.89180 | -72.93985 | 10768 ft | 309 kts | 249° |
| 2026-05-05 15:19 | 40.88469 | -72.96599 | 10709 ft | 297 kts | 249° |
| 2026-05-05 15:20 | 40.87780 | -72.99124 | 10633 ft | 287 kts | 249° |
| 2026-05-05 15:20 | 40.87337 | -73.00745 | 10576 ft | 278 kts | 249° |
| 2026-05-05 15:20 | 40.86483 | -73.03862 | 10427 ft | 265 kts | 248° |
| 2026-05-05 15:20 | 40.86071 | -73.05363 | 10382 ft | 260 kts | 248° |
| 2026-05-05 15:21 | 40.85269 | -73.08286 | 10242 ft | 252 kts | 248° |
| 2026-05-05 15:21 | 40.84674 | -73.10451 | 10053 ft | 250 kts | 248° |
| 2026-05-05 15:21 | 40.84080 | -73.12608 | 9781 ft | 250 kts | 248° |
| 2026-05-05 15:21 | 40.83484 | -73.14771 | 9523 ft | 250 kts | 248° |
| 2026-05-05 15:22 | 40.82889 | -73.16928 | 9277 ft | 250 kts | 248° |
| 2026-05-05 15:22 | 40.82295 | -73.19084 | 9051 ft | 249 kts | 248° |
| 2026-05-05 15:22 | 40.81902 | -73.20508 | 8894 ft | 249 kts | 248° |
| 2026-05-05 15:22 | 40.81319 | -73.22654 | 8612 ft | 247 kts | 250° |
| 2026-05-05 15:23 | 40.81049 | -73.24921 | 8240 ft | 254 kts | 262° |
| 2026-05-05 15:23 | 40.80963 | -73.28024 | 7868 ft | 257 kts | 264° |
| 2026-05-05 15:23 | 40.80916 | -73.30387 | 7545 ft | 257 kts | 264° |
| 2026-05-05 15:23 | 40.80860 | -73.32734 | 7209 ft | 252 kts | 264° |
| 2026-05-05 15:24 | 40.80819 | -73.34275 | 6960 ft | 245 kts | 263° |
| 2026-05-05 15:24 | 40.80755 | -73.36455 | 6618 ft | 237 kts | 263° |
| 2026-05-05 15:24 | 40.80682 | -73.38631 | 6281 ft | 238 kts | 263° |
| 2026-05-05 15:24 | 40.80604 | -73.40809 | 5969 ft | 237 kts | 263° |
| 2026-05-05 15:25 | 40.80526 | -73.42973 | 5680 ft | 236 kts | 263° |
| 2026-05-05 15:25 | 40.80444 | -73.45136 | 5369 ft | 235 kts | 263° |
| 2026-05-05 15:25 | 40.80336 | -73.47973 | 5018 ft | 233 kts | 263° |
| 2026-05-05 15:25 | 40.80281 | -73.49411 | 4835 ft | 232 kts | 264° |
| 2026-05-05 15:26 | 40.80198 | -73.51528 | 4551 ft | 230 kts | 264° |
| 2026-05-05 15:26 | 40.80117 | -73.53627 | 4268 ft | 229 kts | 264° |
| 2026-05-05 15:26 | 40.80037 | -73.55682 | 4031 ft | 225 kts | 265° |
| 2026-05-05 15:26 | 40.79956 | -73.57716 | 3821 ft | 219 kts | 265° |
| 2026-05-05 15:27 | 40.79876 | -73.59676 | 3496 ft | 210 kts | 265° |
| 2026-05-05 15:27 | 40.79783 | -73.61578 | 3270 ft | 202 kts | 260° |
| 2026-05-05 15:27 | 40.79169 | -73.63167 | 3128 ft | 193 kts | 228° |
| 2026-05-05 15:27 | 40.78193 | -73.64288 | 3054 ft | 180 kts | 223° |
| 2026-05-05 15:28 | 40.77214 | -73.65291 | 2870 ft | 176 kts | 222° |
| 2026-05-05 15:28 | 40.76232 | -73.66235 | 2657 ft | 174 kts | 219° |
| 2026-05-05 15:28 | 40.75236 | -73.67066 | 2433 ft | 169 kts | 217° |
| 2026-05-05 15:28 | 40.74240 | -73.67859 | 2210 ft | 166 kts | 216° |
| 2026-05-05 15:29 | 40.73275 | -73.68617 | 2019 ft | 157 kts | 217° |
| 2026-05-05 15:29 | 40.72370 | -73.69325 | 1791 ft | 144 kts | 217° |
| 2026-05-05 15:29 | 40.71566 | -73.69958 | 1625 ft | 127 kts | 218° |
| 2026-05-05 15:29 | 40.70795 | -73.70570 | 1470 ft | 132 kts | 216° |
| 2026-05-05 15:30 | 40.70015 | -73.71178 | 1279 ft | 129 kts | 215° |
| 2026-05-05 15:30 | 40.69239 | -73.71790 | 1110 ft | 133 kts | 213° |
| 2026-05-05 15:30 | 40.68437 | -73.72419 | 933 ft | 134 kts | 213° |
| 2026-05-05 15:30 | 40.67647 | -73.73048 | 773 ft | 131 kts | 208° |
| 2026-05-05 15:31 | 40.66861 | -73.73661 | 589 ft | 134 kts | 207° |
| 2026-05-05 15:31 | 40.66058 | -73.74288 | 403 ft | 133 kts | 207° |
| 2026-05-05 15:31 | 40.65250 | -73.74928 | 218 ft | 134 kts | 206° |
| 2026-05-05 15:31 | 40.64446 | -73.75548 | 53 ft | 136 kts | 208° |
| 2026-05-05 15:32 | 40.63694 | -73.76126 | 27 ft | 107 kts | 213° |
| 2026-05-05 15:32 | 40.63226 | -73.76498 | 27 ft | 47 kts | 210° |
| 2026-05-05 15:32 | 40.63018 | -73.76694 | 29 ft | 27 kts | 233° |
| 2026-05-05 15:32 | 40.62941 | -73.76862 | 28 ft | 12 kts | 242° |
| 2026-05-05 15:33 | 40.62931 | -73.76966 | 26 ft | 12 kts | 287° |
| 2026-05-05 15:33 | 40.62971 | -73.77063 | 27 ft | 12 kts | 300° |
| 2026-05-05 15:33 | 40.63013 | -73.77157 | 30 ft | 12 kts | 301° |
| 2026-05-05 15:33 | 40.63055 | -73.77248 | 32 ft | 12 kts | 301° |
| 2026-05-05 15:34 | 40.63098 | -73.77343 | 32 ft | 13 kts | 301° |
| 2026-05-05 15:34 | 40.63144 | -73.77443 | 34 ft | 13 kts | 301° |
| 2026-05-05 15:34 | 40.63189 | -73.77544 | 35 ft | 13 kts | 301° |
| 2026-05-05 15:34 | 40.63239 | -73.77655 | 33 ft | 15 kts | 301° |
| 2026-05-05 15:35 | 40.63296 | -73.77781 | 32 ft | 17 kts | 301° |
| 2026-05-05 15:35 | 40.63358 | -73.77919 | 29 ft | 19 kts | 300° |
| 2026-05-05 15:35 | 40.63416 | -73.78054 | 29 ft | 16 kts | 300° |
| 2026-05-05 15:35 | 40.63474 | -73.78184 | 30 ft | 16 kts | 301° |
| 2026-05-05 15:36 | 40.63533 | -73.78314 | 30 ft | 17 kts | 301° |
| 2026-05-05 15:36 | 40.63593 | -73.78446 | 34 ft | 17 kts | 300° |
| 2026-05-05 15:36 | 40.63653 | -73.78578 | 33 ft | 17 kts | 301° |
| 2026-05-05 15:36 | 40.63714 | -73.78715 | 34 ft | 17 kts | 301° |
| 2026-05-05 15:37 | 40.63779 | -73.78857 | 31 ft | 19 kts | 301° |
| 2026-05-05 15:37 | 40.63853 | -73.79020 | 28 ft | 22 kts | 301° |
| 2026-05-05 15:37 | 40.63931 | -73.79193 | 31 ft | 20 kts | 301° |
| 2026-05-05 15:37 | 40.64001 | -73.79346 | 27 ft | 18 kts | 301° |
| 2026-05-05 15:38 | 40.64057 | -73.79462 | 27 ft | 14 kts | 313° |
| 2026-05-05 15:38 | 40.64147 | -73.79506 | 29 ft | 14 kts | 359° |
| 2026-05-05 15:38 | 40.64244 | -73.79500 | 29 ft | 14 kts | 4° |
| 2026-05-05 15:38 | 40.64345 | -73.79491 | 29 ft | 16 kts | 4° |
| 2026-05-05 15:39 | 40.64469 | -73.79498 | 29 ft | 19 kts | 355° |
| 2026-05-05 15:39 | 40.64597 | -73.79526 | 28 ft | 18 kts | 338° |
| 2026-05-05 15:39 | 40.64701 | -73.79618 | 28 ft | 18 kts | 324° |
| 2026-05-05 15:39 | 40.64789 | -73.79693 | 28 ft | 14 kts | 338° |
| 2026-05-05 15:40 | 40.64888 | -73.79704 | 28 ft | 14 kts | 360° |
| 2026-05-05 15:40 | 40.64988 | -73.79699 | 28 ft | 14 kts | 8° |
| 2026-05-05 15:40 | 40.65067 | -73.79629 | 28 ft | 14 kts | 56° |
| 2026-05-05 15:40 | 40.65118 | -73.79514 | 28 ft | 15 kts | 60° |
| 2026-05-05 15:41 | 40.65171 | -73.79392 | 28 ft | 16 kts | 60° |
| 2026-05-05 15:41 | 40.65210 | -73.79276 | 28 ft | 14 kts | 81° |
| 2026-05-05 15:41 | 40.65192 | -73.79152 | 28 ft | 14 kts | 107° |
| 2026-05-05 15:41 | 40.65162 | -73.79027 | 28 ft | 14 kts | 108° |
| 2026-05-05 15:42 | 40.65140 | -73.78938 | 28 ft | 8 kts | 117° |
| 2026-05-05 15:42 | 40.65095 | -73.78915 | 28 ft | 7 kts | 179° |
| 2026-05-05 15:42 | 40.65044 | -73.78911 | 28 ft | 7 kts | 158° |
| 2026-05-05 15:42 | 40.64999 | -73.78874 | 28 ft | 8 kts | 153° |
| 2026-05-05 15:43 | 40.64946 | -73.78849 | 28 ft | 8 kts | 161° |
| 2026-05-05 15:43 | 40.64901 | -73.78831 | 28 ft | 4 kts | 165° |
| 2026-05-05 15:43 | 40.64874 | -73.78842 | 28 ft | 4 kts | 222° |
| 2026-05-05 15:43 | 40.64857 | -73.78878 | 28 ft | 4 kts | 245° |
| 2026-05-05 15:44 | 40.64855 | -73.78884 | 28 ft | 0 kts | 245° |
| 2026-05-05 15:52 | 40.64855 | -73.78883 | 28 ft | 0 kts | 245° |